sim
Sign-in with your pilot id or email,
or register
Callsign
Passwort

Schedule Details

Flight Number: DLH429
Departure: Charlotte Douglas International Airport (KCLT) at 23:55
Arrival: Munich Airport (EDDM) at 08:40
Route: Lufthansa Passenger Schedule. Enter filed route here before submitting Pirep.

Weather Information
Getting current METAR information for KCLT 291652Z 21006KT 10SM BKN013 BKN020 BKN220 24/21 A2979 RMK AO2 RAB12E30 SLP081 TCU DSNT NW P0000 T02440211
Getting current METAR information for EDDM 291650Z 26007KT 9999 BKN017 11/09 Q1019 NOSIG

Schedule Frequency

Route Map